sensor_id;sensor_type;location;lat;lon;timestamp;P1;durP1;ratioP1;P2;durP2;ratioP2
77722;SDS011;67811;42.656;23.394;2023-02-28T00:00:32;5.60;;;2.55;;
77722;SDS011;67811;42.656;23.394;2023-02-28T00:03:03;3.58;;;2.67;;
77722;SDS011;67811;42.656;23.394;2023-02-28T00:05:34;3.90;;;2.80;;
77722;SDS011;67811;42.656;23.394;2023-02-28T00:08:04;9.55;;;2.55;;
77722;SDS011;67811;42.656;23.394;2023-02-28T00:10:35;7.10;;;3.42;;
77722;SDS011;67811;42.656;23.394;2023-02-28T00:13:06;5.55;;;3.13;;
77722;SDS011;67811;42.656;23.394;2023-02-28T00:15:38;5.90;;;3.00;;
77722;SDS011;67811;42.656;23.394;2023-02-28T00:18:09;4.15;;;2.50;;
77722;SDS011;67811;42.656;23.394;2023-02-28T00:20:39;9.45;;;3.75;;
77722;SDS011;67811;42.656;23.394;2023-02-28T00:23:10;5.68;;;3.72;;
77722;SDS011;67811;42.656;23.394;2023-02-28T00:25:40;9.88;;;4.13;;
77722;SDS011;67811;42.656;23.394;2023-02-28T00:28:11;4.15;;;2.47;;
77722;SDS011;67811;42.656;23.394;2023-02-28T00:30:43;10.25;;;4.68;;
77722;SDS011;67811;42.656;23.394;2023-02-28T00:33:14;10.30;;;4.63;;
77722;SDS011;67811;42.656;23.394;2023-02-28T00:35:44;9.88;;;4.35;;
77722;SDS011;67811;42.656;23.394;2023-02-28T00:38:15;7.22;;;4.30;;
77722;SDS011;67811;42.656;23.394;2023-02-28T00:40:45;7.22;;;3.63;;
77722;SDS011;67811;42.656;23.394;2023-02-28T00:43:16;6.65;;;4.82;;
77722;SDS011;67811;42.656;23.394;2023-02-28T00:45:48;7.30;;;4.68;;
77722;SDS011;67811;42.656;23.394;2023-02-28T00:48:19;7.63;;;3.85;;
77722;SDS011;67811;42.656;23.394;2023-02-28T00:50:49;7.03;;;4.05;;
77722;SDS011;67811;42.656;23.394;2023-02-28T00:53:20;8.73;;;4.35;;
77722;SDS011;67811;42.656;23.394;2023-02-28T00:55:50;7.55;;;4.28;;
77722;SDS011;67811;42.656;23.394;2023-02-28T00:58:21;10.93;;;4.55;;
77722;SDS011;67811;42.656;23.394;2023-02-28T01:00:53;8.45;;;4.63;;
77722;SDS011;67811;42.656;23.394;2023-02-28T01:03:24;7.82;;;5.15;;
77722;SDS011;67811;42.656;23.394;2023-02-28T01:05:54;6.22;;;3.92;;
77722;SDS011;67811;42.656;23.394;2023-02-28T01:08:25;6.80;;;3.90;;
77722;SDS011;67811;42.656;23.394;2023-02-28T01:10:56;6.38;;;4.50;;
77722;SDS011;67811;42.656;23.394;2023-02-28T01:13:27;8.27;;;5.18;;
77722;SDS011;67811;42.656;23.394;2023-02-28T01:15:59;11.25;;;5.53;;
77722;SDS011;67811;42.656;23.394;2023-02-28T01:18:29;9.43;;;4.50;;
77722;SDS011;67811;42.656;23.394;2023-02-28T01:21:02;9.40;;;3.00;;
77722;SDS011;67811;42.656;23.394;2023-02-28T01:23:33;6.50;;;3.05;;
77722;SDS011;67811;42.656;23.394;2023-02-28T01:26:04;7.07;;;4.30;;
77722;SDS011;67811;42.656;23.394;2023-02-28T01:28:36;11.15;;;3.65;;
77722;SDS011;67811;42.656;23.394;2023-02-28T01:31:08;4.95;;;3.15;;
77722;SDS011;67811;42.656;23.394;2023-02-28T01:33:39;9.25;;;4.30;;
77722;SDS011;67811;42.656;23.394;2023-02-28T01:36:11;9.88;;;4.13;;
77722;SDS011;67811;42.656;23.394;2023-02-28T01:38:43;7.00;;;3.42;;
77722;SDS011;67811;42.656;23.394;2023-02-28T01:41:16;7.00;;;3.75;;
77722;SDS011;67811;42.656;23.394;2023-02-28T01:46:24;7.57;;;3.15;;
77722;SDS011;67811;42.656;23.394;2023-02-28T01:48:57;9.18;;;3.65;;
77722;SDS011;67811;42.656;23.394;2023-02-28T01:51:33;9.82;;;4.05;;
77722;SDS011;67811;42.656;23.394;2023-02-28T01:54:09;7.75;;;3.90;;
77722;SDS011;67811;42.656;23.394;2023-02-28T01:56:44;5.57;;;3.30;;
77722;SDS011;67811;42.656;23.394;2023-02-28T01:59:19;7.18;;;3.72;;
77722;SDS011;67811;42.656;23.394;2023-02-28T02:01:54;8.55;;;4.43;;
77722;SDS011;67811;42.656;23.394;2023-02-28T02:04:25;7.15;;;4.32;;
77722;SDS011;67811;42.656;23.394;2023-02-28T02:07:02;8.27;;;4.13;;
77722;SDS011;67811;42.656;23.394;2023-02-28T02:09:34;7.75;;;4.07;;
77722;SDS011;67811;42.656;23.394;2023-02-28T02:12:07;8.90;;;5.18;;
77722;SDS011;67811;42.656;23.394;2023-02-28T02:17:31;4.03;;;3.08;;
77722;SDS011;67811;42.656;23.394;2023-02-28T02:23:33;5.45;;;3.45;;
77722;SDS011;67811;42.656;23.394;2023-02-28T02:26:45;9.15;;;5.15;;
77722;SDS011;67811;42.656;23.394;2023-02-28T02:29:35;8.40;;;4.03;;
77722;SDS011;67811;42.656;23.394;2023-02-28T02:32:28;8.43;;;4.32;;
77722;SDS011;67811;42.656;23.394;2023-02-28T02:35:18;8.57;;;3.70;;
77722;SDS011;67811;42.656;23.394;2023-02-28T02:37:57;10.15;;;4.50;;
77722;SDS011;67811;42.656;23.394;2023-02-28T02:40:34;10.15;;;4.43;;
77722;SDS011;67811;42.656;23.394;2023-02-28T02:43:09;17.48;;;6.03;;
77722;SDS011;67811;42.656;23.394;2023-02-28T02:45:46;6.90;;;3.83;;
77722;SDS011;67811;42.656;23.394;2023-02-28T02:48:21;9.93;;;3.65;;
77722;SDS011;67811;42.656;23.394;2023-02-28T02:50:57;8.98;;;4.90;;
77722;SDS011;67811;42.656;23.394;2023-02-28T02:53:32;9.80;;;4.13;;
77722;SDS011;67811;42.656;23.394;2023-02-28T02:56:07;10.02;;;5.80;;
77722;SDS011;67811;42.656;23.394;2023-02-28T02:58:40;10.10;;;4.70;;
77722;SDS011;67811;42.656;23.394;2023-02-28T03:01:14;7.22;;;4.40;;
77722;SDS011;67811;42.656;23.394;2023-02-28T03:03:48;8.90;;;5.68;;
77722;SDS011;67811;42.656;23.394;2023-02-28T03:06:20;9.88;;;6.05;;
77722;SDS011;67811;42.656;23.394;2023-02-28T03:08:51;10.05;;;4.60;;
77722;SDS011;67811;42.656;23.394;2023-02-28T03:11:21;8.00;;;5.15;;
77722;SDS011;67811;42.656;23.394;2023-02-28T03:13:54;12.02;;;5.50;;
77722;SDS011;67811;42.656;23.394;2023-02-28T03:16:52;10.30;;;4.82;;
77722;SDS011;67811;42.656;23.394;2023-02-28T03:19:36;12.48;;;7.15;;
77722;SDS011;67811;42.656;23.394;2023-02-28T03:22:22;7.25;;;4.15;;
77722;SDS011;67811;42.656;23.394;2023-02-28T03:25:04;12.40;;;6.00;;
77722;SDS011;67811;42.656;23.394;2023-02-28T03:27:39;9.70;;;4.63;;
77722;SDS011;67811;42.656;23.394;2023-02-28T03:30:14;11.50;;;5.07;;
77722;SDS011;67811;42.656;23.394;2023-02-28T03:32:56;7.95;;;4.68;;
77722;SDS011;67811;42.656;23.394;2023-02-28T03:35:34;14.27;;;4.53;;
77722;SDS011;67811;42.656;23.394;2023-02-28T03:38:11;9.93;;;5.15;;
77722;SDS011;67811;42.656;23.394;2023-02-28T03:40:48;13.68;;;4.95;;
77722;SDS011;67811;42.656;23.394;2023-02-28T03:43:22;9.43;;;5.32;;
77722;SDS011;67811;42.656;23.394;2023-02-28T03:45:57;12.00;;;6.35;;
77722;SDS011;67811;42.656;23.394;2023-02-28T03:48:34;8.55;;;5.30;;
77722;SDS011;67811;42.656;23.394;2023-02-28T03:51:10;12.70;;;4.95;;
77722;SDS011;67811;42.656;23.394;2023-02-28T03:53:47;12.25;;;4.00;;
77722;SDS011;67811;42.656;23.394;2023-02-28T03:56:23;18.58;;;7.72;;
77722;SDS011;67811;42.656;23.394;2023-02-28T03:59:02;12.57;;;5.68;;
77722;SDS011;67811;42.656;23.394;2023-02-28T04:01:39;19.50;;;6.30;;
77722;SDS011;67811;42.656;23.394;2023-02-28T04:04:11;9.50;;;4.78;;
77722;SDS011;67811;42.656;23.394;2023-02-28T04:06:44;12.85;;;7.20;;
77722;SDS011;67811;42.656;23.394;2023-02-28T04:09:16;13.60;;;6.15;;
77722;SDS011;67811;42.656;23.394;2023-02-28T04:11:48;11.75;;;5.72;;
77722;SDS011;67811;42.656;23.394;2023-02-28T04:14:20;7.07;;;4.57;;
77722;SDS011;67811;42.656;23.394;2023-02-28T04:16:51;12.45;;;5.10;;
77722;SDS011;67811;42.656;23.394;2023-02-28T04:19:22;13.88;;;6.25;;
77722;SDS011;67811;42.656;23.394;2023-02-28T04:21:53;9.88;;;5.97;;
77722;SDS011;67811;42.656;23.394;2023-02-28T04:24:25;16.38;;;7.53;;
77722;SDS011;67811;42.656;23.394;2023-02-28T04:26:57;7.57;;;3.33;;
77722;SDS011;67811;42.656;23.394;2023-02-28T04:29:28;14.63;;;4.32;;
77722;SDS011;67811;42.656;23.394;2023-02-28T04:32:00;6.40;;;3.38;;
77722;SDS011;67811;42.656;23.394;2023-02-28T04:34:32;8.55;;;4.68;;
77722;SDS011;67811;42.656;23.394;2023-02-28T04:37:02;13.38;;;5.85;;
77722;SDS011;67811;42.656;23.394;2023-02-28T04:39:36;10.85;;;4.70;;
77722;SDS011;67811;42.656;23.394;2023-02-28T04:42:07;14.27;;;6.13;;
77722;SDS011;67811;42.656;23.394;2023-02-28T04:44:37;14.65;;;6.55;;
77722;SDS011;67811;42.656;23.394;2023-02-28T04:47:08;12.15;;;5.53;;
77722;SDS011;67811;42.656;23.394;2023-02-28T04:49:39;16.90;;;7.55;;
77722;SDS011;67811;42.656;23.394;2023-02-28T04:52:09;8.65;;;3.88;;
77722;SDS011;67811;42.656;23.394;2023-02-28T04:54:41;12.40;;;5.18;;
77722;SDS011;67811;42.656;23.394;2023-02-28T04:57:12;11.73;;;7.28;;
77722;SDS011;67811;42.656;23.394;2023-02-28T04:59:42;13.80;;;6.88;;
77722;SDS011;67811;42.656;23.394;2023-02-28T05:02:13;15.65;;;9.20;;
77722;SDS011;67811;42.656;23.394;2023-02-28T05:04:43;10.52;;;5.38;;
77722;SDS011;67811;42.656;23.394;2023-02-28T05:07:14;28.58;;;10.27;;
77722;SDS011;67811;42.656;23.394;2023-02-28T05:09:46;12.43;;;6.53;;
77722;SDS011;67811;42.656;23.394;2023-02-28T05:12:16;20.25;;;7.95;;
77722;SDS011;67811;42.656;23.394;2023-02-28T05:14:47;8.70;;;5.70;;
77722;SDS011;67811;42.656;23.394;2023-02-28T05:17:17;17.60;;;5.85;;
77722;SDS011;67811;42.656;23.394;2023-02-28T05:19:48;16.42;;;7.70;;
77722;SDS011;67811;42.656;23.394;2023-02-28T05:22:18;13.85;;;6.35;;
77722;SDS011;67811;42.656;23.394;2023-02-28T05:24:50;17.15;;;6.65;;
77722;SDS011;67811;42.656;23.394;2023-02-28T05:27:21;8.40;;;4.72;;
77722;SDS011;67811;42.656;23.394;2023-02-28T05:29:52;11.00;;;5.75;;
77722;SDS011;67811;42.656;23.394;2023-02-28T05:32:22;10.38;;;5.35;;
77722;SDS011;67811;42.656;23.394;2023-02-28T05:34:53;18.08;;;6.57;;
77722;SDS011;67811;42.656;23.394;2023-02-28T05:37:23;13.80;;;6.25;;
77722;SDS011;67811;42.656;23.394;2023-02-28T05:39:55;13.18;;;6.25;;
77722;SDS011;67811;42.656;23.394;2023-02-28T05:42:26;15.00;;;5.05;;
77722;SDS011;67811;42.656;23.394;2023-02-28T05:44:56;10.10;;;5.03;;
77722;SDS011;67811;42.656;23.394;2023-02-28T05:47:27;15.73;;;7.85;;
77722;SDS011;67811;42.656;23.394;2023-02-28T05:49:58;11.75;;;5.63;;
77722;SDS011;67811;42.656;23.394;2023-02-28T05:52:28;17.55;;;8.75;;
77722;SDS011;67811;42.656;23.394;2023-02-28T05:55:00;9.73;;;5.00;;
77722;SDS011;67811;42.656;23.394;2023-02-28T05:57:31;19.05;;;7.78;;
77722;SDS011;67811;42.656;23.394;2023-02-28T06:00:01;11.70;;;6.55;;
77722;SDS011;67811;42.656;23.394;2023-02-28T06:02:32;16.30;;;6.13;;
77722;SDS011;67811;42.656;23.394;2023-02-28T06:05:03;15.50;;;6.45;;
77722;SDS011;67811;42.656;23.394;2023-02-28T06:07:34;11.13;;;5.30;;
77722;SDS011;67811;42.656;23.394;2023-02-28T06:10:06;13.48;;;6.60;;
77722;SDS011;67811;42.656;23.394;2023-02-28T06:12:38;10.48;;;5.43;;
77722;SDS011;67811;42.656;23.394;2023-02-28T06:15:10;9.63;;;5.85;;
77722;SDS011;67811;42.656;23.394;2023-02-28T06:17:43;19.15;;;7.07;;
77722;SDS011;67811;42.656;23.394;2023-02-28T06:20:14;17.88;;;7.43;;
77722;SDS011;67811;42.656;23.394;2023-02-28T06:22:45;13.95;;;6.90;;
77722;SDS011;67811;42.656;23.394;2023-02-28T06:25:17;20.02;;;8.55;;
77722;SDS011;67811;42.656;23.394;2023-02-28T06:27:47;14.35;;;5.45;;
77722;SDS011;67811;42.656;23.394;2023-02-28T06:30:18;13.10;;;5.20;;
77722;SDS011;67811;42.656;23.394;2023-02-28T06:32:49;16.80;;;8.85;;
77722;SDS011;67811;42.656;23.394;2023-02-28T06:35:19;13.00;;;7.15;;
77722;SDS011;67811;42.656;23.394;2023-02-28T06:37:50;17.92;;;8.45;;
77722;SDS011;67811;42.656;23.394;2023-02-28T06:40:22;14.43;;;7.38;;
77722;SDS011;67811;42.656;23.394;2023-02-28T06:42:52;13.05;;;7.05;;
77722;SDS011;67811;42.656;23.394;2023-02-28T06:45:23;17.92;;;9.52;;
77722;SDS011;67811;42.656;23.394;2023-02-28T06:47:53;12.15;;;6.75;;
77722;SDS011;67811;42.656;23.394;2023-02-28T06:50:24;14.45;;;7.97;;
77722;SDS011;67811;42.656;23.394;2023-02-28T06:52:55;18.20;;;8.93;;
77722;SDS011;67811;42.656;23.394;2023-02-28T06:55:27;12.13;;;6.38;;
77722;SDS011;67811;42.656;23.394;2023-02-28T06:57:58;17.08;;;7.78;;
77722;SDS011;67811;42.656;23.394;2023-02-28T07:00:28;14.98;;;7.05;;
77722;SDS011;67811;42.656;23.394;2023-02-28T07:02:59;13.73;;;6.00;;
77722;SDS011;67811;42.656;23.394;2023-02-28T07:05:29;23.02;;;8.73;;
77722;SDS011;67811;42.656;23.394;2023-02-28T07:08:00;15.15;;;7.70;;
77722;SDS011;67811;42.656;23.394;2023-02-28T07:10:32;9.02;;;6.05;;
77722;SDS011;67811;42.656;23.394;2023-02-28T07:13:03;10.25;;;5.88;;
77722;SDS011;67811;42.656;23.394;2023-02-28T07:15:34;10.50;;;6.82;;
77722;SDS011;67811;42.656;23.394;2023-02-28T07:18:05;6.88;;;4.10;;
77722;SDS011;67811;42.656;23.394;2023-02-28T07:20:35;5.80;;;4.55;;
77722;SDS011;67811;42.656;23.394;2023-02-28T07:23:06;7.90;;;4.07;;
77722;SDS011;67811;42.656;23.394;2023-02-28T07:25:38;10.40;;;5.82;;
77722;SDS011;67811;42.656;23.394;2023-02-28T07:28:08;7.05;;;4.47;;
77722;SDS011;67811;42.656;23.394;2023-02-28T07:30:39;6.55;;;4.35;;
77722;SDS011;67811;42.656;23.394;2023-02-28T07:33:10;17.05;;;5.97;;
77722;SDS011;67811;42.656;23.394;2023-02-28T07:35:40;10.27;;;5.30;;
77722;SDS011;67811;42.656;23.394;2023-02-28T07:38:11;9.70;;;4.85;;
77722;SDS011;67811;42.656;23.394;2023-02-28T07:40:43;13.18;;;5.55;;
77722;SDS011;67811;42.656;23.394;2023-02-28T07:43:14;6.97;;;4.45;;
77722;SDS011;67811;42.656;23.394;2023-02-28T07:45:44;8.40;;;5.45;;
77722;SDS011;67811;42.656;23.394;2023-02-28T07:48:15;11.52;;;6.40;;
77722;SDS011;67811;42.656;23.394;2023-02-28T07:50:49;11.00;;;4.80;;
77722;SDS011;67811;42.656;23.394;2023-02-28T07:53:24;10.07;;;5.65;;
77722;SDS011;67811;42.656;23.394;2023-02-28T07:55:56;9.40;;;5.88;;
77722;SDS011;67811;42.656;23.394;2023-02-28T07:58:28;7.53;;;4.97;;
77722;SDS011;67811;42.656;23.394;2023-02-28T08:01:04;11.90;;;7.68;;
77722;SDS011;67811;42.656;23.394;2023-02-28T08:03:35;10.10;;;5.32;;
77722;SDS011;67811;42.656;23.394;2023-02-28T08:06:08;9.10;;;5.18;;
77722;SDS011;67811;42.656;23.394;2023-02-28T08:08:45;13.85;;;6.90;;
77722;SDS011;67811;42.656;23.394;2023-02-28T08:11:17;14.35;;;3.90;;
77722;SDS011;67811;42.656;23.394;2023-02-28T08:13:48;10.88;;;5.00;;
77722;SDS011;67811;42.656;23.394;2023-02-28T08:16:19;11.00;;;6.15;;
77722;SDS011;67811;42.656;23.394;2023-02-28T08:18:49;10.27;;;6.75;;
77722;SDS011;67811;42.656;23.394;2023-02-28T08:21:21;6.88;;;4.75;;
77722;SDS011;67811;42.656;23.394;2023-02-28T08:23:51;9.65;;;4.43;;
77722;SDS011;67811;42.656;23.394;2023-02-28T08:26:23;11.60;;;6.72;;
77722;SDS011;67811;42.656;23.394;2023-02-28T08:28:54;15.90;;;5.72;;
77722;SDS011;67811;42.656;23.394;2023-02-28T08:31:25;8.98;;;3.78;;
77722;SDS011;67811;42.656;23.394;2023-02-28T08:33:55;11.88;;;5.13;;
77722;SDS011;67811;42.656;23.394;2023-02-28T08:36:26;11.90;;;5.60;;
77722;SDS011;67811;42.656;23.394;2023-02-28T08:38:56;13.75;;;5.80;;
77722;SDS011;67811;42.656;23.394;2023-02-28T08:41:29;9.18;;;4.63;;
77722;SDS011;67811;42.656;23.394;2023-02-28T08:44:00;10.20;;;5.00;;
77722;SDS011;67811;42.656;23.394;2023-02-28T08:46:30;14.27;;;7.22;;
77722;SDS011;67811;42.656;23.394;2023-02-28T08:49:01;9.32;;;4.97;;
77722;SDS011;67811;42.656;23.394;2023-02-28T08:51:31;8.65;;;4.25;;
77722;SDS011;67811;42.656;23.394;2023-02-28T08:54:02;8.40;;;4.25;;
77722;SDS011;67811;42.656;23.394;2023-02-28T08:56:34;10.68;;;5.28;;
77722;SDS011;67811;42.656;23.394;2023-02-28T08:59:05;8.10;;;4.82;;
77722;SDS011;67811;42.656;23.394;2023-02-28T09:01:35;12.25;;;6.15;;
77722;SDS011;67811;42.656;23.394;2023-02-28T09:04:06;7.28;;;4.30;;
77722;SDS011;67811;42.656;23.394;2023-02-28T09:06:37;12.40;;;5.55;;
77722;SDS011;67811;42.656;23.394;2023-02-28T09:09:08;11.32;;;5.70;;
77722;SDS011;67811;42.656;23.394;2023-02-28T09:11:40;10.00;;;4.40;;
77722;SDS011;67811;42.656;23.394;2023-02-28T09:14:10;15.43;;;5.13;;
77722;SDS011;67811;42.656;23.394;2023-02-28T09:16:41;11.50;;;6.05;;
77722;SDS011;67811;42.656;23.394;2023-02-28T09:19:11;9.75;;;3.65;;
77722;SDS011;67811;42.656;23.394;2023-02-28T09:21:42;6.68;;;4.28;;
77722;SDS011;67811;42.656;23.394;2023-02-28T09:24:13;13.07;;;4.97;;
77722;SDS011;67811;42.656;23.394;2023-02-28T09:26:45;11.68;;;6.05;;
77722;SDS011;67811;42.656;23.394;2023-02-28T09:29:15;8.80;;;5.10;;
77722;SDS011;67811;42.656;23.394;2023-02-28T09:31:46;9.07;;;4.70;;
77722;SDS011;67811;42.656;23.394;2023-02-28T09:34:17;10.27;;;4.57;;
77722;SDS011;67811;42.656;23.394;2023-02-28T09:36:47;10.75;;;5.03;;
77722;SDS011;67811;42.656;23.394;2023-02-28T09:39:18;8.10;;;4.75;;
77722;SDS011;67811;42.656;23.394;2023-02-28T09:41:50;6.07;;;3.45;;
77722;SDS011;67811;42.656;23.394;2023-02-28T09:46:57;10.40;;;5.32;;
77722;SDS011;67811;42.656;23.394;2023-02-28T09:49:33;8.48;;;4.80;;
77722;SDS011;67811;42.656;23.394;2023-02-28T09:52:10;10.45;;;4.03;;
77722;SDS011;67811;42.656;23.394;2023-02-28T09:54:44;10.75;;;4.43;;
77722;SDS011;67811;42.656;23.394;2023-02-28T09:57:19;6.55;;;3.95;;
77722;SDS011;67811;42.656;23.394;2023-02-28T10:00:03;11.20;;;4.45;;
77722;SDS011;67811;42.656;23.394;2023-02-28T10:02:49;6.95;;;2.80;;
77722;SDS011;67811;42.656;23.394;2023-02-28T10:05:33;8.88;;;4.35;;
77722;SDS011;67811;42.656;23.394;2023-02-28T10:08:11;6.30;;;3.90;;
77722;SDS011;67811;42.656;23.394;2023-02-28T10:10:45;5.93;;;4.00;;
77722;SDS011;67811;42.656;23.394;2023-02-28T10:13:21;7.00;;;4.18;;
77722;SDS011;67811;42.656;23.394;2023-02-28T10:15:57;8.98;;;4.43;;
77722;SDS011;67811;42.656;23.394;2023-02-28T10:18:34;9.15;;;4.45;;
77722;SDS011;67811;42.656;23.394;2023-02-28T10:21:15;7.10;;;4.25;;
77722;SDS011;67811;42.656;23.394;2023-02-28T10:23:50;3.47;;;2.05;;
77722;SDS011;67811;42.656;23.394;2023-02-28T10:26:28;9.40;;;3.40;;
77722;SDS011;67811;42.656;23.394;2023-02-28T10:29:02;5.03;;;3.58;;
77722;SDS011;67811;42.656;23.394;2023-02-28T10:31:33;12.45;;;3.45;;
77722;SDS011;67811;42.656;23.394;2023-02-28T10:34:04;6.80;;;4.22;;
77722;SDS011;67811;42.656;23.394;2023-02-28T10:36:34;9.95;;;4.85;;
77722;SDS011;67811;42.656;23.394;2023-02-28T10:42:20;6.80;;;4.28;;
77722;SDS011;67811;42.656;23.394;2023-02-28T10:45:09;8.02;;;3.33;;
77722;SDS011;67811;42.656;23.394;2023-02-28T10:47:50;6.75;;;4.30;;
77722;SDS011;67811;42.656;23.394;2023-02-28T10:50:26;3.00;;;2.63;;
77722;SDS011;67811;42.656;23.394;2023-02-28T10:53:10;8.05;;;4.93;;
77722;SDS011;67811;42.656;23.394;2023-02-28T10:55:56;10.00;;;4.38;;
77722;SDS011;67811;42.656;23.394;2023-02-28T10:58:29;9.57;;;3.75;;
77722;SDS011;67811;42.656;23.394;2023-02-28T11:01:02;8.65;;;4.65;;
77722;SDS011;67811;42.656;23.394;2023-02-28T11:03:34;6.15;;;4.47;;
77722;SDS011;67811;42.656;23.394;2023-02-28T11:06:06;11.40;;;4.93;;
77722;SDS011;67811;42.656;23.394;2023-02-28T11:08:46;11.50;;;4.88;;
77722;SDS011;67811;42.656;23.394;2023-02-28T11:11:19;11.77;;;5.63;;
77722;SDS011;67811;42.656;23.394;2023-02-28T11:13:53;12.25;;;6.07;;
77722;SDS011;67811;42.656;23.394;2023-02-28T11:16:33;9.18;;;4.75;;
77722;SDS011;67811;42.656;23.394;2023-02-28T11:19:06;7.45;;;4.00;;
77722;SDS011;67811;42.656;23.394;2023-02-28T11:21:51;12.07;;;3.90;;
77722;SDS011;67811;42.656;23.394;2023-02-28T11:24:25;9.95;;;5.50;;
77722;SDS011;67811;42.656;23.394;2023-02-28T11:26:58;11.05;;;4.47;;
77722;SDS011;67811;42.656;23.394;2023-02-28T11:29:30;13.70;;;5.20;;
77722;SDS011;67811;42.656;23.394;2023-02-28T11:32:04;8.70;;;5.32;;
77722;SDS011;67811;42.656;23.394;2023-02-28T11:34:40;8.10;;;4.20;;
77722;SDS011;67811;42.656;23.394;2023-02-28T11:37:13;7.97;;;4.28;;
77722;SDS011;67811;42.656;23.394;2023-02-28T11:39:46;6.65;;;3.63;;
77722;SDS011;67811;42.656;23.394;2023-02-28T11:42:23;11.23;;;6.50;;
77722;SDS011;67811;42.656;23.394;2023-02-28T11:45:18;11.40;;;5.35;;
77722;SDS011;67811;42.656;23.394;2023-02-28T11:48:01;7.07;;;3.85;;
77722;SDS011;67811;42.656;23.394;2023-02-28T11:50:49;12.95;;;5.75;;
77722;SDS011;67811;42.656;23.394;2023-02-28T11:53:35;7.38;;;4.65;;
77722;SDS011;67811;42.656;23.394;2023-02-28T11:56:20;6.43;;;3.30;;
77722;SDS011;67811;42.656;23.394;2023-02-28T11:59:00;10.77;;;4.18;;
77722;SDS011;67811;42.656;23.394;2023-02-28T12:04:39;6.93;;;3.88;;
77722;SDS011;67811;42.656;23.394;2023-02-28T12:07:18;12.45;;;5.47;;
77722;SDS011;67811;42.656;23.394;2023-02-28T12:09:58;11.70;;;4.47;;
77722;SDS011;67811;42.656;23.394;2023-02-28T12:12:41;9.05;;;3.80;;
77722;SDS011;67811;42.656;23.394;2023-02-28T12:15:20;8.25;;;3.22;;
77722;SDS011;67811;42.656;23.394;2023-02-28T12:20:45;7.57;;;3.92;;
77722;SDS011;67811;42.656;23.394;2023-02-28T12:23:27;8.93;;;5.50;;
77722;SDS011;67811;42.656;23.394;2023-02-28T12:26:17;4.28;;;2.83;;
77722;SDS011;67811;42.656;23.394;2023-02-28T12:28:54;10.27;;;5.80;;
77722;SDS011;67811;42.656;23.394;2023-02-28T12:31:31;34.38;;;5.70;;
77722;SDS011;67811;42.656;23.394;2023-02-28T12:34:06;6.43;;;3.78;;
77722;SDS011;67811;42.656;23.394;2023-02-28T12:36:41;6.22;;;3.30;;
77722;SDS011;67811;42.656;23.394;2023-02-28T12:39:16;5.20;;;2.83;;
77722;SDS011;67811;42.656;23.394;2023-02-28T12:41:54;8.35;;;4.32;;
77722;SDS011;67811;42.656;23.394;2023-02-28T12:44:30;6.28;;;3.55;;
77722;SDS011;67811;42.656;23.394;2023-02-28T12:47:05;8.18;;;4.00;;
77722;SDS011;67811;42.656;23.394;2023-02-28T12:49:42;7.10;;;3.72;;
77722;SDS011;67811;42.656;23.394;2023-02-28T12:52:26;8.00;;;4.93;;
77722;SDS011;67811;42.656;23.394;2023-02-28T12:55:05;13.20;;;4.00;;
77722;SDS011;67811;42.656;23.394;2023-02-28T12:57:46;8.25;;;4.40;;
77722;SDS011;67811;42.656;23.394;2023-02-28T13:00:23;7.55;;;4.10;;
77722;SDS011;67811;42.656;23.394;2023-02-28T13:06:05;13.25;;;5.43;;
77722;SDS011;67811;42.656;23.394;2023-02-28T13:09:04;9.45;;;4.47;;
77722;SDS011;67811;42.656;23.394;2023-02-28T13:11:39;6.38;;;4.22;;
77722;SDS011;67811;42.656;23.394;2023-02-28T13:14:18;10.63;;;4.72;;
77722;SDS011;67811;42.656;23.394;2023-02-28T13:16:57;8.20;;;5.10;;
77722;SDS011;67811;42.656;23.394;2023-02-28T13:19:31;7.40;;;4.00;;
77722;SDS011;67811;42.656;23.394;2023-02-28T13:22:04;6.65;;;3.40;;
77722;SDS011;67811;42.656;23.394;2023-02-28T13:24:48;9.95;;;5.15;;
77722;SDS011;67811;42.656;23.394;2023-02-28T13:27:23;6.30;;;3.42;;
77722;SDS011;67811;42.656;23.394;2023-02-28T13:33:23;5.13;;;3.80;;
77722;SDS011;67811;42.656;23.394;2023-02-28T13:36:10;5.45;;;3.28;;
77722;SDS011;67811;42.656;23.394;2023-02-28T13:38:55;8.10;;;3.45;;
77722;SDS011;67811;42.656;23.394;2023-02-28T13:41:47;6.38;;;2.72;;
77722;SDS011;67811;42.656;23.394;2023-02-28T13:44:18;9.57;;;4.85;;
77722;SDS011;67811;42.656;23.394;2023-02-28T13:49:53;8.43;;;3.60;;
77722;SDS011;67811;42.656;23.394;2023-02-28T13:52:24;10.25;;;5.03;;
77722;SDS011;67811;42.656;23.394;2023-02-28T13:55:19;5.15;;;3.05;;
77722;SDS011;67811;42.656;23.394;2023-02-28T14:01:06;6.55;;;3.50;;
77722;SDS011;67811;42.656;23.394;2023-02-28T14:03:50;10.98;;;3.78;;
77722;SDS011;67811;42.656;23.394;2023-02-28T14:06:30;7.22;;;3.42;;
77722;SDS011;67811;42.656;23.394;2023-02-28T14:09:03;8.95;;;4.20;;
77722;SDS011;67811;42.656;23.394;2023-02-28T14:11:46;10.43;;;3.50;;
77722;SDS011;67811;42.656;23.394;2023-02-28T14:17:22;8.52;;;3.45;;
77722;SDS011;67811;42.656;23.394;2023-02-28T14:19:54;7.55;;;2.92;;
77722;SDS011;67811;42.656;23.394;2023-02-28T14:22:43;7.75;;;2.50;;
77722;SDS011;67811;42.656;23.394;2023-02-28T14:25:25;4.75;;;2.55;;
77722;SDS011;67811;42.656;23.394;2023-02-28T14:28:09;7.90;;;3.88;;
77722;SDS011;67811;42.656;23.394;2023-02-28T14:30:53;4.07;;;3.15;;
77722;SDS011;67811;42.656;23.394;2023-02-28T14:36:35;4.82;;;2.70;;
77722;SDS011;67811;42.656;23.394;2023-02-28T14:39:07;6.22;;;3.22;;
77722;SDS011;67811;42.656;23.394;2023-02-28T14:41:43;3.63;;;2.95;;
77722;SDS011;67811;42.656;23.394;2023-02-28T14:44:16;8.25;;;2.55;;
77722;SDS011;67811;42.656;23.394;2023-02-28T14:46:49;7.20;;;3.42;;
77722;SDS011;67811;42.656;23.394;2023-02-28T14:49:23;6.38;;;4.32;;
77722;SDS011;67811;42.656;23.394;2023-02-28T14:52:05;5.10;;;2.58;;
77722;SDS011;67811;42.656;23.394;2023-02-28T14:54:40;6.88;;;3.13;;
77722;SDS011;67811;42.656;23.394;2023-02-28T14:57:20;4.45;;;2.10;;
77722;SDS011;67811;42.656;23.394;2023-02-28T15:00:03;4.07;;;2.53;;
77722;SDS011;67811;42.656;23.394;2023-02-28T15:02:38;5.20;;;2.53;;
77722;SDS011;67811;42.656;23.394;2023-02-28T15:05:25;4.18;;;2.55;;
77722;SDS011;67811;42.656;23.394;2023-02-28T15:08:02;3.40;;;2.88;;
77722;SDS011;67811;42.656;23.394;2023-02-28T15:10:40;5.85;;;2.63;;
77722;SDS011;67811;42.656;23.394;2023-02-28T15:13:14;4.85;;;2.63;;
77722;SDS011;67811;42.656;23.394;2023-02-28T15:15:47;4.95;;;3.42;;
77722;SDS011;67811;42.656;23.394;2023-02-28T15:18:24;5.47;;;2.85;;
77722;SDS011;67811;42.656;23.394;2023-02-28T15:21:03;5.65;;;3.15;;
77722;SDS011;67811;42.656;23.394;2023-02-28T15:23:37;3.15;;;2.65;;
77722;SDS011;67811;42.656;23.394;2023-02-28T15:26:10;3.92;;;2.05;;
77722;SDS011;67811;42.656;23.394;2023-02-28T15:28:46;6.07;;;2.05;;
77722;SDS011;67811;42.656;23.394;2023-02-28T15:31:20;6.55;;;2.65;;
77722;SDS011;67811;42.656;23.394;2023-02-28T15:33:54;5.00;;;2.67;;
77722;SDS011;67811;42.656;23.394;2023-02-28T15:36:28;3.22;;;2.20;;
77722;SDS011;67811;42.656;23.394;2023-02-28T15:39:00;5.55;;;2.47;;
77722;SDS011;67811;42.656;23.394;2023-02-28T15:41:31;6.72;;;3.90;;
77722;SDS011;67811;42.656;23.394;2023-02-28T15:44:13;5.97;;;3.13;;
77722;SDS011;67811;42.656;23.394;2023-02-28T15:46:53;5.45;;;2.20;;
77722;SDS011;67811;42.656;23.394;2023-02-28T15:49:27;6.32;;;3.25;;